Terminal Aerodrome Forecast
Issued by NWS

Home | Current Version | Previous Version | Text Only | Print | Product List | Glossary On
Versions: 1 2 3 4 5 6 7 8 9 10 11 12 13 14 15 16 17 18 19
310
FTUS43 KAPX 171150 CCA
TAFPLN
TAF COR
KPLN 171150Z 1712/1812 22009KT P6SM SCT028 BKN090
      TEMPO 1712/1714 BKN030
     FM171400 24011G18KT P6SM SCT035 BKN070
     FM171700 24019G27KT P6SM SCT035 BKN130
     FM180800 26012KT P6SM SCT150
     FM181100 26008KT P6SM SCT035=

USA.gov is the U.S. government's official web portal to all federal, state and local government web resources and services.